Time,TemperatureF,DewpointF,PressureIn,WindDirection,WindDirectionDegrees,WindSpeedMPH,WindSpeedGustMPH,Humidity,HourlyPrecipIn,Conditions,Clouds,dailyrainin,SolarRadiationWatts/m^2,SoftwareType,DateUTC
2013-05-02 00:02:00,32.0,22.0,-100.00,North,349,6.0,16.0,67,0.00,,,0.00,0.000000,,2013-05-02 05:02:00,
2013-05-02 00:32:00,30.0,22.0,-100.00,NNW,342,4.0,13.0,72,0.00,,,0.00,0.000000,,2013-05-02 05:32:00,
2013-05-02 00:42:00,30.0,22.0,-100.00,NNW,342,4.0,13.0,72,0.00,,,0.00,0.000000,,2013-05-02 05:42:00,
2013-05-02 00:52:00,30.0,22.0,-100.00,NNW,342,4.0,13.0,72,0.00,,,0.00,0.000000,,2013-05-02 05:52:00,
2013-05-02 01:01:00,30.0,22.0,-100.00,NNW,342,4.0,13.0,72,0.00,,,0.00,0.000000,,2013-05-02 06:01:00,
2013-05-02 03:32:00,27.0,21.0,-100.00,NNW,342,3.0,5.0,79,-99.99,,,0.00,0.000000,,2013-05-02 08:32:00,
2013-05-02 03:42:00,27.0,21.0,-100.00,NNW,342,3.0,5.0,79,-99.99,,,0.00,0.000000,,2013-05-02 08:42:00,
2013-05-02 03:52:00,27.0,21.0,-100.00,NNW,342,3.0,5.0,79,-99.99,,,0.00,0.000000,,2013-05-02 08:52:00,
2013-05-02 04:02:00,27.0,21.0,-100.00,NNW,342,3.0,5.0,79,-99.99,,,0.00,0.000000,,2013-05-02 09:02:00,
2013-05-02 04:33:00,26.0,21.0,-100.00,NNW,341,3.0,6.0,81,0.00,,,0.00,0.000000,,2013-05-02 09:33:00,
2013-05-02 04:42:00,26.0,21.0,-100.00,NNW,341,3.0,6.0,81,0.00,,,0.00,0.000000,,2013-05-02 09:42:00,
2013-05-02 04:52:00,26.0,21.0,-100.00,NNW,341,3.0,6.0,81,0.00,,,0.00,0.000000,,2013-05-02 09:52:00,
2013-05-02 05:02:00,26.0,21.0,-100.00,NNW,341,3.0,6.0,81,0.00,,,0.00,0.000000,,2013-05-02 10:02:00,
2013-05-02 05:33:00,23.0,19.0,-100.00,NNE,26,0.0,4.0,85,0.00,,,0.00,0.000000,,2013-05-02 10:33:00,
2013-05-02 05:42:00,23.0,19.0,-100.00,NNE,26,0.0,4.0,85,0.00,,,0.00,0.000000,,2013-05-02 10:42:00,
2013-05-02 05:53:00,23.0,19.0,-100.00,NNE,26,0.0,4.0,85,0.00,,,0.00,0.000000,,2013-05-02 10:53:00,
2013-05-02 06:02:00,23.0,19.0,-100.00,NNE,26,0.0,4.0,85,0.00,,,0.00,0.000000,,2013-05-02 11:02:00,
2013-05-02 06:32:00,24.0,20.0,-100.00,NNW,340,3.0,5.0,84,0.00,,,0.00,0.000000,,2013-05-02 11:32:00,
2013-05-02 06:42:00,24.0,20.0,-100.00,NNW,340,3.0,5.0,84,0.00,,,0.00,0.000000,,2013-05-02 11:42:00,
2013-05-02 06:52:00,24.0,20.0,-100.00,NNW,340,3.0,5.0,84,0.00,,,0.00,0.000000,,2013-05-02 11:52:00,
2013-05-02 07:01:00,24.0,20.0,-100.00,NNW,340,3.0,5.0,84,0.00,,,0.00,0.000000,,2013-05-02 12:01:00,
2013-05-02 08:32:00,28.0,22.0,-100.00,NNW,332,6.0,10.0,77,-99.99,,,0.00,143.000000,,2013-05-02 13:32:00,
2013-05-02 08:42:00,28.0,22.0,-100.00,NNW,332,6.0,10.0,77,-99.99,,,0.00,143.000000,,2013-05-02 13:42:00,
2013-05-02 08:52:00,28.0,22.0,-100.00,NNW,332,6.0,10.0,77,-99.99,,,0.00,143.000000,,2013-05-02 13:52:00,
2013-05-02 09:02:00,28.0,22.0,-100.00,NNW,332,6.0,10.0,77,-99.99,,,0.00,143.000000,,2013-05-02 14:02:00,
2013-05-02 09:32:00,30.0,21.0,-100.00,NNW,338,7.0,14.0,69,0.00,,,0.00,236.000000,,2013-05-02 14:32:00,
2013-05-02 09:43:00,30.0,21.0,-100.00,NNW,338,7.0,14.0,69,0.00,,,0.00,236.000000,,2013-05-02 14:43:00,
2013-05-02 09:52:00,30.0,21.0,-100.00,NNW,338,7.0,14.0,69,0.00,,,0.00,236.000000,,2013-05-02 14:52:00,
2013-05-02 10:02:00,30.0,21.0,-100.00,NNW,338,7.0,14.0,69,0.00,,,0.00,236.000000,,2013-05-02 15:02:00,
2013-05-02 10:33:00,32.0,20.0,-100.00,NNW,337,8.0,17.0,60,0.00,,,0.00,396.000000,,2013-05-02 15:33:00,
2013-05-02 10:43:00,32.0,20.0,-100.00,NNW,337,8.0,17.0,60,0.00,,,0.00,396.000000,,2013-05-02 15:43:00,
2013-05-02 11:03:00,32.0,20.0,-100.00,NNW,337,8.0,17.0,60,0.00,,,0.00,396.000000,,2013-05-02 16:03:00,
2013-05-02 11:32:00,34.0,20.0,-100.00,NNW,327,8.0,16.0,55,0.00,,,0.00,507.000000,,2013-05-02 16:32:00,
2013-05-02 11:43:00,34.0,20.0,-100.00,NNW,327,8.0,16.0,55,0.00,,,0.00,507.000000,,2013-05-02 16:43:00,
2013-05-02 11:52:00,34.0,20.0,-100.00,NNW,327,8.0,16.0,55,0.00,,,0.00,507.000000,,2013-05-02 16:52:00,
2013-05-02 12:02:00,34.0,20.0,-100.00,NNW,327,8.0,16.0,55,0.00,,,0.00,507.000000,,2013-05-02 17:02:00,
2013-05-02 12:32:00,36.0,19.0,-100.00,NNW,347,7.0,18.0,50,0.00,,,0.00,658.000000,,2013-05-02 17:32:00,
2013-05-02 12:42:00,36.0,19.0,-100.00,NNW,347,7.0,18.0,50,0.00,,,0.00,658.000000,,2013-05-02 17:42:00,
2013-05-02 12:52:00,36.0,19.0,-100.00,NNW,347,7.0,18.0,50,0.00,,,0.00,658.000000,,2013-05-02 17:52:00,
2013-05-02 13:01:00,36.0,19.0,-100.00,NNW,347,7.0,18.0,50,0.00,,,0.00,658.000000,,2013-05-02 18:01:00,
2013-05-02 13:32:00,35.0,20.0,-100.00,North,0,7.0,17.0,55,0.00,,,0.00,525.000000,,2013-05-02 18:32:00,
2013-05-02 13:42:00,35.0,20.0,-100.00,North,0,7.0,17.0,55,0.00,,,0.00,525.000000,,2013-05-02 18:42:00,
2013-05-02 13:52:00,35.0,20.0,-100.00,North,0,7.0,17.0,55,0.00,,,0.00,525.000000,,2013-05-02 18:52:00,
2013-05-02 14:01:00,35.0,20.0,-100.00,North,0,7.0,17.0,55,0.00,,,0.00,525.000000,,2013-05-02 19:01:00,
2013-05-02 14:32:00,37.0,21.0,-100.00,NNW,345,7.0,15.0,52,0.00,,,0.00,531.000000,,2013-05-02 19:32:00,
2013-05-02 14:42:00,37.0,21.0,-100.00,NNW,345,7.0,15.0,52,0.00,,,0.00,531.000000,,2013-05-02 19:42:00,
2013-05-02 14:52:00,37.0,21.0,-100.00,NNW,345,7.0,15.0,52,0.00,,,0.00,531.000000,,2013-05-02 19:52:00,
2013-05-02 15:02:00,37.0,21.0,-100.00,NNW,345,7.0,15.0,52,0.00,,,0.00,531.000000,,2013-05-02 20:02:00,
2013-05-02 15:32:00,38.0,21.0,-100.00,North,350,7.0,16.0,49,0.00,,,0.00,550.000000,,2013-05-02 20:32:00,
2013-05-02 15:42:00,38.0,21.0,-100.00,North,350,7.0,16.0,49,0.00,,,0.00,550.000000,,2013-05-02 20:42:00,
2013-05-02 15:52:00,38.0,21.0,-100.00,North,350,7.0,16.0,49,0.00,,,0.00,550.000000,,2013-05-02 20:52:00,
2013-05-02 16:01:00,38.0,21.0,-100.00,North,350,7.0,16.0,49,0.00,,,0.00,550.000000,,2013-05-02 21:01:00,
2013-05-02 16:33:00,37.0,21.0,-100.00,NNE,16,7.0,16.0,52,0.00,,,0.00,453.000000,,2013-05-02 21:33:00,
2013-05-02 16:42:00,37.0,21.0,-100.00,NNE,16,7.0,16.0,52,0.00,,,0.00,453.000000,,2013-05-02 21:42:00,
2013-05-02 16:53:00,37.0,21.0,-100.00,NNE,16,7.0,16.0,52,0.00,,,0.00,453.000000,,2013-05-02 21:53:00,
2013-05-02 17:02:00,37.0,21.0,-100.00,NNE,16,7.0,16.0,52,0.00,,,0.00,453.000000,,2013-05-02 22:02:00,
2013-05-02 17:33:00,35.0,20.0,-100.00,North,351,7.0,14.0,55,0.00,,,0.00,339.000000,,2013-05-02 22:33:00,
2013-05-02 17:42:00,35.0,20.0,-100.00,North,351,7.0,14.0,55,0.00,,,0.00,339.000000,,2013-05-02 22:42:00,
2013-05-02 17:52:00,35.0,20.0,-100.00,North,351,7.0,14.0,55,0.00,,,0.00,339.000000,,2013-05-02 22:52:00,
2013-05-02 18:02:00,35.0,20.0,-100.00,North,351,7.0,14.0,55,0.00,,,0.00,339.000000,,2013-05-02 23:02:00,
2013-05-02 18:32:00,35.0,20.0,-100.00,North,355,7.0,14.0,54,0.00,,,0.00,270.000000,,2013-05-02 23:32:00,
2013-05-02 18:42:00,35.0,20.0,-100.00,North,355,7.0,14.0,54,0.00,,,0.00,270.000000,,2013-05-02 23:42:00,
2013-05-02 18:52:00,35.0,20.0,-100.00,North,355,7.0,14.0,54,0.00,,,0.00,270.000000,,2013-05-02 23:52:00,
2013-05-02 19:01:00,35.0,20.0,-100.00,North,355,7.0,14.0,54,0.00,,,0.00,270.000000,,2013-05-03 00:01:00,
2013-05-02 20:32:00,34.0,20.0,-100.00,North,11,4.0,12.0,55,-99.99,,,0.00,77.000000,,2013-05-03 01:32:00,
2013-05-02 20:42:00,34.0,20.0,-100.00,North,11,4.0,12.0,55,-99.99,,,0.00,77.000000,,2013-05-03 01:42:00,
2013-05-02 20:52:00,34.0,20.0,-100.00,North,11,4.0,12.0,55,-99.99,,,0.00,77.000000,,2013-05-03 01:52:00,
2013-05-02 21:01:00,34.0,20.0,-100.00,North,11,4.0,12.0,55,-99.99,,,0.00,77.000000,,2013-05-03 02:01:00,
2013-05-02 21:32:00,33.0,19.0,-100.00,North,9,4.0,11.0,57,0.00,,,0.00,5.000000,,2013-05-03 02:32:00,
2013-05-02 21:42:00,33.0,19.0,-100.00,North,9,4.0,11.0,57,0.00,,,0.00,5.000000,,2013-05-03 02:42:00,
2013-05-02 21:52:00,33.0,19.0,-100.00,North,9,4.0,11.0,57,0.00,,,0.00,5.000000,,2013-05-03 02:52:00,
2013-05-02 22:01:00,33.0,19.0,-100.00,North,9,4.0,11.0,57,0.00,,,0.00,5.000000,,2013-05-03 03:01:00,
2013-05-02 22:33:00,32.0,20.0,-100.00,North,3,6.0,13.0,60,0.00,,,0.00,0.000000,,2013-05-03 03:33:00,
2013-05-02 22:43:00,32.0,20.0,-100.00,North,3,6.0,13.0,60,0.00,,,0.00,0.000000,,2013-05-03 03:43:00,
2013-05-02 22:53:00,32.0,20.0,-100.00,North,3,6.0,13.0,60,0.00,,,0.00,0.000000,,2013-05-03 03:53:00,
2013-05-02 23:03:00,32.0,20.0,-100.00,North,3,6.0,13.0,60,0.00,,,0.00,0.000000,,2013-05-03 04:03:00,
2013-05-02 23:32:00,32.0,21.0,-100.00,NNE,17,5.0,14.0,64,0.00,,,0.00,0.000000,,2013-05-03 04:32:00,
2013-05-02 23:43:00,32.0,21.0,-100.00,NNE,17,5.0,14.0,64,0.00,,,0.00,0.000000,,2013-05-03 04:43:00,
2013-05-02 23:53:00,32.0,21.0,-100.00,NNE,17,5.0,14.0,64,0.00,,,0.00,0.000000,,2013-05-03 04:53:00,